sensor_id;sensor_type;location;lat;lon;timestamp;P1;P2;P0
76421;PMS5003;65254;52.354;13.614;2023-02-03T00:00:01;9;8;
76421;PMS5003;65254;52.354;13.614;2023-02-03T00:04:00;6;6;
76421;PMS5003;65254;52.354;13.614;2023-02-03T00:08:02;5;5;
76421;PMS5003;65254;52.354;13.614;2023-02-03T00:12:00;4;4;
76421;PMS5003;65254;52.354;13.614;2023-02-03T00:16:00;4;4;
76421;PMS5003;65254;52.354;13.614;2023-02-03T00:20:01;4;4;
76421;PMS5003;65254;52.354;13.614;2023-02-03T00:24:00;4;4;
76421;PMS5003;65254;52.354;13.614;2023-02-03T00:28:01;4;4;
76421;PMS5003;65254;52.354;13.614;2023-02-03T00:32:00;5;5;
76421;PMS5003;65254;52.354;13.614;2023-02-03T00:36:04;5;5;
76421;PMS5003;65254;52.354;13.614;2023-02-03T00:40:00;4;4;
76421;PMS5003;65254;52.354;13.614;2023-02-03T00:44:00;4;4;
76421;PMS5003;65254;52.354;13.614;2023-02-03T00:48:00;5;5;
76421;PMS5003;65254;52.354;13.614;2023-02-03T00:52:00;5;5;
76421;PMS5003;65254;52.354;13.614;2023-02-03T00:56:00;5;5;
76421;PMS5003;65254;52.354;13.614;2023-02-03T01:00:00;5;5;
76421;PMS5003;65254;52.354;13.614;2023-02-03T01:04:01;5;5;
76421;PMS5003;65254;52.354;13.614;2023-02-03T01:08:00;4;4;
76421;PMS5003;65254;52.354;13.614;2023-02-03T01:12:01;4;4;
76421;PMS5003;65254;52.354;13.614;2023-02-03T01:16:01;4;4;
76421;PMS5003;65254;52.354;13.614;2023-02-03T01:20:00;4;4;
76421;PMS5003;65254;52.354;13.614;2023-02-03T01:24:01;3;3;
76421;PMS5003;65254;52.354;13.614;2023-02-03T01:28:01;4;4;
76421;PMS5003;65254;52.354;13.614;2023-02-03T01:32:01;4;4;
76421;PMS5003;65254;52.354;13.614;2023-02-03T01:36:01;4;4;
76421;PMS5003;65254;52.354;13.614;2023-02-03T01:40:00;4;4;
76421;PMS5003;65254;52.354;13.614;2023-02-03T01:48:00;4;4;
76421;PMS5003;65254;52.354;13.614;2023-02-03T01:52:01;4;4;
76421;PMS5003;65254;52.354;13.614;2023-02-03T01:56:01;5;5;
76421;PMS5003;65254;52.354;13.614;2023-02-03T02:00:01;4;4;
76421;PMS5003;65254;52.354;13.614;2023-02-03T02:04:02;5;5;
76421;PMS5003;65254;52.354;13.614;2023-02-03T02:08:01;4;4;
76421;PMS5003;65254;52.354;13.614;2023-02-03T02:12:00;4;4;
76421;PMS5003;65254;52.354;13.614;2023-02-03T02:16:05;5;5;
76421;PMS5003;65254;52.354;13.614;2023-02-03T02:28:11;3;3;
76421;PMS5003;65254;52.354;13.614;2023-02-03T02:32:04;3;3;
76421;PMS5003;65254;52.354;13.614;2023-02-03T02:36:07;3;3;
76421;PMS5003;65254;52.354;13.614;2023-02-03T02:40:07;3;3;
76421;PMS5003;65254;52.354;13.614;2023-02-03T02:44:06;2;2;
76421;PMS5003;65254;52.354;13.614;2023-02-03T02:48:04;2;2;
76421;PMS5003;65254;52.354;13.614;2023-02-03T02:52:03;2;2;
76421;PMS5003;65254;52.354;13.614;2023-02-03T02:56:02;2;2;
76421;PMS5003;65254;52.354;13.614;2023-02-03T03:00:00;2;2;
76421;PMS5003;65254;52.354;13.614;2023-02-03T03:04:04;2;2;
76421;PMS5003;65254;52.354;13.614;2023-02-03T03:08:00;2;2;
76421;PMS5003;65254;52.354;13.614;2023-02-03T03:12:05;1;1;
76421;PMS5003;65254;52.354;13.614;2023-02-03T03:16:02;1;1;
76421;PMS5003;65254;52.354;13.614;2023-02-03T03:20:04;1;1;
76421;PMS5003;65254;52.354;13.614;2023-02-03T03:24:03;2;2;
76421;PMS5003;65254;52.354;13.614;2023-02-03T03:28:03;2;2;
76421;PMS5003;65254;52.354;13.614;2023-02-03T03:32:01;2;2;
76421;PMS5003;65254;52.354;13.614;2023-02-03T03:36:05;2;2;
76421;PMS5003;65254;52.354;13.614;2023-02-03T03:40:07;2;2;
76421;PMS5003;65254;52.354;13.614;2023-02-03T03:44:02;2;2;
76421;PMS5003;65254;52.354;13.614;2023-02-03T03:48:05;1;1;
76421;PMS5003;65254;52.354;13.614;2023-02-03T03:52:04;1;1;
76421;PMS5003;65254;52.354;13.614;2023-02-03T03:56:02;1;1;
76421;PMS5003;65254;52.354;13.614;2023-02-03T04:00:02;1;1;
76421;PMS5003;65254;52.354;13.614;2023-02-03T04:04:06;1;1;
76421;PMS5003;65254;52.354;13.614;2023-02-03T04:08:00;1;1;
76421;PMS5003;65254;52.354;13.614;2023-02-03T04:12:01;1;1;
76421;PMS5003;65254;52.354;13.614;2023-02-03T04:16:00;1;1;
76421;PMS5003;65254;52.354;13.614;2023-02-03T04:20:00;1;1;
76421;PMS5003;65254;52.354;13.614;2023-02-03T04:24:00;1;1;
76421;PMS5003;65254;52.354;13.614;2023-02-03T04:28:00;1;1;
76421;PMS5003;65254;52.354;13.614;2023-02-03T04:32:01;2;2;
76421;PMS5003;65254;52.354;13.614;2023-02-03T04:36:00;2;2;
76421;PMS5003;65254;52.354;13.614;2023-02-03T04:40:01;3;3;
76421;PMS5003;65254;52.354;13.614;2023-02-03T04:44:00;3;3;
76421;PMS5003;65254;52.354;13.614;2023-02-03T04:48:00;3;3;
76421;PMS5003;65254;52.354;13.614;2023-02-03T04:52:00;3;3;
76421;PMS5003;65254;52.354;13.614;2023-02-03T04:56:00;3;3;
76421;PMS5003;65254;52.354;13.614;2023-02-03T05:00:00;3;3;
76421;PMS5003;65254;52.354;13.614;2023-02-03T05:04:00;3;3;
76421;PMS5003;65254;52.354;13.614;2023-02-03T05:08:00;4;4;
76421;PMS5003;65254;52.354;13.614;2023-02-03T05:12:00;4;4;
76421;PMS5003;65254;52.354;13.614;2023-02-03T05:16:00;4;4;
76421;PMS5003;65254;52.354;13.614;2023-02-03T05:20:00;5;5;
76421;PMS5003;65254;52.354;13.614;2023-02-03T05:24:00;5;5;
76421;PMS5003;65254;52.354;13.614;2023-02-03T05:28:00;6;6;
76421;PMS5003;65254;52.354;13.614;2023-02-03T05:32:01;6;6;
76421;PMS5003;65254;52.354;13.614;2023-02-03T05:36:00;6;6;
76421;PMS5003;65254;52.354;13.614;2023-02-03T05:40:00;7;7;
76421;PMS5003;65254;52.354;13.614;2023-02-03T05:44:00;6;6;
76421;PMS5003;65254;52.354;13.614;2023-02-03T05:48:00;8;7;
76421;PMS5003;65254;52.354;13.614;2023-02-03T05:52:00;8;7;
76421;PMS5003;65254;52.354;13.614;2023-02-03T05:56:00;9;8;
76421;PMS5003;65254;52.354;13.614;2023-02-03T06:00:00;9;8;
76421;PMS5003;65254;52.354;13.614;2023-02-03T06:04:01;9;8;
76421;PMS5003;65254;52.354;13.614;2023-02-03T06:08:00;10;9;
76421;PMS5003;65254;52.354;13.614;2023-02-03T06:12:00;10;9;
76421;PMS5003;65254;52.354;13.614;2023-02-03T06:16:01;12;11;
76421;PMS5003;65254;52.354;13.614;2023-02-03T06:20:00;10;9;
76421;PMS5003;65254;52.354;13.614;2023-02-03T06:24:00;10;9;
76421;PMS5003;65254;52.354;13.614;2023-02-03T06:28:00;11;10;
76421;PMS5003;65254;52.354;13.614;2023-02-03T06:32:01;10;9;
76421;PMS5003;65254;52.354;13.614;2023-02-03T06:36:00;10;9;
76421;PMS5003;65254;52.354;13.614;2023-02-03T06:40:00;10;9;
76421;PMS5003;65254;52.354;13.614;2023-02-03T06:44:00;10;9;
76421;PMS5003;65254;52.354;13.614;2023-02-03T06:48:00;10;9;
76421;PMS5003;65254;52.354;13.614;2023-02-03T06:52:00;10;9;
76421;PMS5003;65254;52.354;13.614;2023-02-03T06:56:00;10;9;
76421;PMS5003;65254;52.354;13.614;2023-02-03T07:00:00;11;10;
76421;PMS5003;65254;52.354;13.614;2023-02-03T07:04:00;11;10;
76421;PMS5003;65254;52.354;13.614;2023-02-03T07:08:00;11;10;
76421;PMS5003;65254;52.354;13.614;2023-02-03T07:12:00;10;9;
76421;PMS5003;65254;52.354;13.614;2023-02-03T07:16:00;11;10;
76421;PMS5003;65254;52.354;13.614;2023-02-03T07:20:00;11;10;
76421;PMS5003;65254;52.354;13.614;2023-02-03T07:24:00;11;10;
76421;PMS5003;65254;52.354;13.614;2023-02-03T07:28:01;11;10;
76421;PMS5003;65254;52.354;13.614;2023-02-03T07:32:01;11;10;
76421;PMS5003;65254;52.354;13.614;2023-02-03T07:36:00;9;8;
76421;PMS5003;65254;52.354;13.614;2023-02-03T07:40:00;11;10;
76421;PMS5003;65254;52.354;13.614;2023-02-03T07:44:00;11;10;
76421;PMS5003;65254;52.354;13.614;2023-02-03T07:48:00;11;10;
76421;PMS5003;65254;52.354;13.614;2023-02-03T07:52:00;12;11;
76421;PMS5003;65254;52.354;13.614;2023-02-03T07:56:01;10;9;
76421;PMS5003;65254;52.354;13.614;2023-02-03T08:00:01;10;9;
76421;PMS5003;65254;52.354;13.614;2023-02-03T08:04:00;9;8;
76421;PMS5003;65254;52.354;13.614;2023-02-03T08:08:00;10;9;
76421;PMS5003;65254;52.354;13.614;2023-02-03T08:12:00;9;8;
76421;PMS5003;65254;52.354;13.614;2023-02-03T08:16:01;9;8;
76421;PMS5003;65254;52.354;13.614;2023-02-03T08:20:00;7;7;
76421;PMS5003;65254;52.354;13.614;2023-02-03T08:24:00;9;8;
76421;PMS5003;65254;52.354;13.614;2023-02-03T08:28:00;7;7;
76421;PMS5003;65254;52.354;13.614;2023-02-03T08:32:00;6;6;
76421;PMS5003;65254;52.354;13.614;2023-02-03T08:36:00;6;6;
76421;PMS5003;65254;52.354;13.614;2023-02-03T08:40:00;6;6;
76421;PMS5003;65254;52.354;13.614;2023-02-03T08:44:00;5;5;
76421;PMS5003;65254;52.354;13.614;2023-02-03T08:48:00;5;5;
76421;PMS5003;65254;52.354;13.614;2023-02-03T08:52:00;6;6;
76421;PMS5003;65254;52.354;13.614;2023-02-03T08:56:04;6;6;
76421;PMS5003;65254;52.354;13.614;2023-02-03T09:00:01;6;6;
76421;PMS5003;65254;52.354;13.614;2023-02-03T09:04:00;5;5;
76421;PMS5003;65254;52.354;13.614;2023-02-03T09:08:01;4;4;
76421;PMS5003;65254;52.354;13.614;2023-02-03T09:12:00;4;4;
76421;PMS5003;65254;52.354;13.614;2023-02-03T09:16:00;4;4;
76421;PMS5003;65254;52.354;13.614;2023-02-03T09:20:00;4;4;
76421;PMS5003;65254;52.354;13.614;2023-02-03T09:24:01;4;4;
76421;PMS5003;65254;52.354;13.614;2023-02-03T09:28:00;4;4;
76421;PMS5003;65254;52.354;13.614;2023-02-03T09:32:00;4;4;
76421;PMS5003;65254;52.354;13.614;2023-02-03T09:36:01;4;4;
76421;PMS5003;65254;52.354;13.614;2023-02-03T09:40:00;3;3;
76421;PMS5003;65254;52.354;13.614;2023-02-03T09:44:04;3;3;
76421;PMS5003;65254;52.354;13.614;2023-02-03T09:48:05;3;3;
76421;PMS5003;65254;52.354;13.614;2023-02-03T09:52:03;2;2;
76421;PMS5003;65254;52.354;13.614;2023-02-03T09:56:00;2;2;
76421;PMS5003;65254;52.354;13.614;2023-02-03T10:00:05;2;2;
76421;PMS5003;65254;52.354;13.614;2023-02-03T10:04:05;2;2;
76421;PMS5003;65254;52.354;13.614;2023-02-03T10:08:04;2;2;
76421;PMS5003;65254;52.354;13.614;2023-02-03T10:12:15;2;2;
76421;PMS5003;65254;52.354;13.614;2023-02-03T10:16:13;2;2;
76421;PMS5003;65254;52.354;13.614;2023-02-03T10:20:03;2;2;
76421;PMS5003;65254;52.354;13.614;2023-02-03T10:24:03;2;2;
76421;PMS5003;65254;52.354;13.614;2023-02-03T10:28:06;2;2;
76421;PMS5003;65254;52.354;13.614;2023-02-03T10:32:01;2;2;
76421;PMS5003;65254;52.354;13.614;2023-02-03T10:36:03;2;2;
76421;PMS5003;65254;52.354;13.614;2023-02-03T10:40:01;2;2;
76421;PMS5003;65254;52.354;13.614;2023-02-03T10:44:04;1;1;
76421;PMS5003;65254;52.354;13.614;2023-02-03T10:48:02;2;2;
76421;PMS5003;65254;52.354;13.614;2023-02-03T10:52:00;2;2;
76421;PMS5003;65254;52.354;13.614;2023-02-03T10:56:03;1;1;
76421;PMS5003;65254;52.354;13.614;2023-02-03T11:00:05;1;1;
76421;PMS5003;65254;52.354;13.614;2023-02-03T11:04:02;3;3;
76421;PMS5003;65254;52.354;13.614;2023-02-03T11:08:00;1;1;
76421;PMS5003;65254;52.354;13.614;2023-02-03T11:12:04;1;1;
76421;PMS5003;65254;52.354;13.614;2023-02-03T11:16:02;0;0;
76421;PMS5003;65254;52.354;13.614;2023-02-03T11:20:03;0;0;
76421;PMS5003;65254;52.354;13.614;2023-02-03T11:24:02;0;0;
76421;PMS5003;65254;52.354;13.614;2023-02-03T11:28:04;1;1;
76421;PMS5003;65254;52.354;13.614;2023-02-03T11:32:03;1;1;
76421;PMS5003;65254;52.354;13.614;2023-02-03T11:36:01;1;1;
76421;PMS5003;65254;52.354;13.614;2023-02-03T11:40:11;1;1;
76421;PMS5003;65254;52.354;13.614;2023-02-03T11:44:09;1;1;
76421;PMS5003;65254;52.354;13.614;2023-02-03T11:48:13;1;1;
76421;PMS5003;65254;52.354;13.614;2023-02-03T11:52:04;1;1;
76421;PMS5003;65254;52.354;13.614;2023-02-03T11:56:08;2;2;
76421;PMS5003;65254;52.354;13.614;2023-02-03T12:00:13;2;2;
76421;PMS5003;65254;52.354;13.614;2023-02-03T12:04:14;2;2;
76421;PMS5003;65254;52.354;13.614;2023-02-03T12:08:07;2;2;
76421;PMS5003;65254;52.354;13.614;2023-02-03T12:12:14;2;2;
76421;PMS5003;65254;52.354;13.614;2023-02-03T12:16:07;2;2;
76421;PMS5003;65254;52.354;13.614;2023-02-03T12:20:10;2;2;
76421;PMS5003;65254;52.354;13.614;2023-02-03T12:24:06;2;2;
76421;PMS5003;65254;52.354;13.614;2023-02-03T12:28:05;2;2;
76421;PMS5003;65254;52.354;13.614;2023-02-03T12:32:06;2;2;
76421;PMS5003;65254;52.354;13.614;2023-02-03T12:36:07;2;2;
76421;PMS5003;65254;52.354;13.614;2023-02-03T12:40:04;2;2;
76421;PMS5003;65254;52.354;13.614;2023-02-03T12:44:04;2;2;
76421;PMS5003;65254;52.354;13.614;2023-02-03T12:48:05;2;2;
76421;PMS5003;65254;52.354;13.614;2023-02-03T12:52:04;3;3;
76421;PMS5003;65254;52.354;13.614;2023-02-03T12:56:04;2;2;
76421;PMS5003;65254;52.354;13.614;2023-02-03T13:00:12;3;3;
76421;PMS5003;65254;52.354;13.614;2023-02-03T13:04:05;3;3;
76421;PMS5003;65254;52.354;13.614;2023-02-03T13:08:06;2;2;
76421;PMS5003;65254;52.354;13.614;2023-02-03T13:12:05;2;2;
76421;PMS5003;65254;52.354;13.614;2023-02-03T13:16:05;3;3;
76421;PMS5003;65254;52.354;13.614;2023-02-03T13:20:05;1;1;
76421;PMS5003;65254;52.354;13.614;2023-02-03T13:24:02;1;1;
76421;PMS5003;65254;52.354;13.614;2023-02-03T13:28:08;1;1;
76421;PMS5003;65254;52.354;13.614;2023-02-03T13:32:09;1;1;
76421;PMS5003;65254;52.354;13.614;2023-02-03T13:36:07;2;2;
76421;PMS5003;65254;52.354;13.614;2023-02-03T13:40:09;1;1;
76421;PMS5003;65254;52.354;13.614;2023-02-03T13:44:01;1;1;
76421;PMS5003;65254;52.354;13.614;2023-02-03T13:48:09;1;1;
76421;PMS5003;65254;52.354;13.614;2023-02-03T13:52:00;1;1;
76421;PMS5003;65254;52.354;13.614;2023-02-03T13:56:02;2;2;
76421;PMS5003;65254;52.354;13.614;2023-02-03T14:00:02;1;1;
76421;PMS5003;65254;52.354;13.614;2023-02-03T14:04:02;1;1;
76421;PMS5003;65254;52.354;13.614;2023-02-03T14:16:13;2;2;
76421;PMS5003;65254;52.354;13.614;2023-02-03T14:20:01;2;2;
76421;PMS5003;65254;52.354;13.614;2023-02-03T14:24:04;2;2;
76421;PMS5003;65254;52.354;13.614;2023-02-03T14:28:03;3;3;
76421;PMS5003;65254;52.354;13.614;2023-02-03T14:32:02;2;2;
76421;PMS5003;65254;52.354;13.614;2023-02-03T14:36:00;2;2;
76421;PMS5003;65254;52.354;13.614;2023-02-03T14:40:12;2;2;
76421;PMS5003;65254;52.354;13.614;2023-02-03T14:44:04;3;3;
76421;PMS5003;65254;52.354;13.614;2023-02-03T14:48:10;3;3;
76421;PMS5003;65254;52.354;13.614;2023-02-03T14:52:07;3;3;
76421;PMS5003;65254;52.354;13.614;2023-02-03T14:56:10;3;3;
76421;PMS5003;65254;52.354;13.614;2023-02-03T15:00:03;3;3;
76421;PMS5003;65254;52.354;13.614;2023-02-03T15:08:00;3;3;
76421;PMS5003;65254;52.354;13.614;2023-02-03T15:12:00;4;4;
76421;PMS5003;65254;52.354;13.614;2023-02-03T15:16:02;3;3;
76421;PMS5003;65254;52.354;13.614;2023-02-03T15:20:00;3;3;
76421;PMS5003;65254;52.354;13.614;2023-02-03T15:24:00;3;3;
76421;PMS5003;65254;52.354;13.614;2023-02-03T15:28:11;3;3;
76421;PMS5003;65254;52.354;13.614;2023-02-03T15:32:03;3;3;
76421;PMS5003;65254;52.354;13.614;2023-02-03T15:36:02;4;4;
76421;PMS5003;65254;52.354;13.614;2023-02-03T15:40:03;3;3;
76421;PMS5003;65254;52.354;13.614;2023-02-03T15:44:03;3;3;
76421;PMS5003;65254;52.354;13.614;2023-02-03T15:48:03;3;3;
76421;PMS5003;65254;52.354;13.614;2023-02-03T15:52:03;2;2;
76421;PMS5003;65254;52.354;13.614;2023-02-03T15:56:02;2;2;
76421;PMS5003;65254;52.354;13.614;2023-02-03T16:00:07;2;2;
76421;PMS5003;65254;52.354;13.614;2023-02-03T16:04:00;3;3;
76421;PMS5003;65254;52.354;13.614;2023-02-03T16:12:04;2;2;
76421;PMS5003;65254;52.354;13.614;2023-02-03T16:16:03;3;3;
76421;PMS5003;65254;52.354;13.614;2023-02-03T16:20:19;2;2;
76421;PMS5003;65254;52.354;13.614;2023-02-03T16:24:01;2;2;
76421;PMS5003;65254;52.354;13.614;2023-02-03T16:28:03;2;2;
76421;PMS5003;65254;52.354;13.614;2023-02-03T16:32:00;2;2;
76421;PMS5003;65254;52.354;13.614;2023-02-03T16:36:09;2;2;
76421;PMS5003;65254;52.354;13.614;2023-02-03T16:40:00;2;2;
76421;PMS5003;65254;52.354;13.614;2023-02-03T16:44:00;3;3;
76421;PMS5003;65254;52.354;13.614;2023-02-03T16:48:01;3;3;
76421;PMS5003;65254;52.354;13.614;2023-02-03T16:52:01;4;3;
76421;PMS5003;65254;52.354;13.614;2023-02-03T16:56:02;4;4;
76421;PMS5003;65254;52.354;13.614;2023-02-03T17:00:00;2;2;
76421;PMS5003;65254;52.354;13.614;2023-02-03T17:04:00;3;3;
76421;PMS5003;65254;52.354;13.614;2023-02-03T17:08:00;2;2;
76421;PMS5003;65254;52.354;13.614;2023-02-03T17:12:00;3;3;
76421;PMS5003;65254;52.354;13.614;2023-02-03T17:16:06;3;3;
76421;PMS5003;65254;52.354;13.614;2023-02-03T17:20:01;2;2;
76421;PMS5003;65254;52.354;13.614;2023-02-03T17:24:00;3;3;
76421;PMS5003;65254;52.354;13.614;2023-02-03T17:28:01;3;3;
76421;PMS5003;65254;52.354;13.614;2023-02-03T17:32:00;3;3;
76421;PMS5003;65254;52.354;13.614;2023-02-03T17:36:03;3;3;
76421;PMS5003;65254;52.354;13.614;2023-02-03T17:40:10;3;3;
76421;PMS5003;65254;52.354;13.614;2023-02-03T17:44:10;3;3;
76421;PMS5003;65254;52.354;13.614;2023-02-03T17:48:10;3;3;
76421;PMS5003;65254;52.354;13.614;2023-02-03T17:52:10;4;4;
76421;PMS5003;65254;52.354;13.614;2023-02-03T17:56:05;3;3;
76421;PMS5003;65254;52.354;13.614;2023-02-03T18:00:00;3;3;
76421;PMS5003;65254;52.354;13.614;2023-02-03T18:04:02;3;3;
76421;PMS5003;65254;52.354;13.614;2023-02-03T18:08:10;3;3;
76421;PMS5003;65254;52.354;13.614;2023-02-03T18:12:00;2;2;
76421;PMS5003;65254;52.354;13.614;2023-02-03T18:16:01;3;3;
76421;PMS5003;65254;52.354;13.614;2023-02-03T18:20:00;3;3;
76421;PMS5003;65254;52.354;13.614;2023-02-03T18:24:00;3;3;
76421;PMS5003;65254;52.354;13.614;2023-02-03T18:28:00;3;3;
76421;PMS5003;65254;52.354;13.614;2023-02-03T18:32:00;3;3;
76421;PMS5003;65254;52.354;13.614;2023-02-03T18:36:01;2;2;
76421;PMS5003;65254;52.354;13.614;2023-02-03T18:40:00;3;3;
76421;PMS5003;65254;52.354;13.614;2023-02-03T18:44:01;3;3;
76421;PMS5003;65254;52.354;13.614;2023-02-03T18:48:00;2;2;
76421;PMS5003;65254;52.354;13.614;2023-02-03T18:52:00;2;2;
76421;PMS5003;65254;52.354;13.614;2023-02-03T18:56:05;3;3;
76421;PMS5003;65254;52.354;13.614;2023-02-03T19:00:00;2;2;
76421;PMS5003;65254;52.354;13.614;2023-02-03T19:04:01;3;3;
76421;PMS5003;65254;52.354;13.614;2023-02-03T19:08:00;2;2;
76421;PMS5003;65254;52.354;13.614;2023-02-03T19:12:00;2;2;
76421;PMS5003;65254;52.354;13.614;2023-02-03T19:16:00;2;2;
76421;PMS5003;65254;52.354;13.614;2023-02-03T19:20:00;3;3;
76421;PMS5003;65254;52.354;13.614;2023-02-03T19:24:00;2;2;
76421;PMS5003;65254;52.354;13.614;2023-02-03T19:28:00;2;2;
76421;PMS5003;65254;52.354;13.614;2023-02-03T19:32:01;2;2;
76421;PMS5003;65254;52.354;13.614;2023-02-03T19:36:01;2;2;
76421;PMS5003;65254;52.354;13.614;2023-02-03T19:40:00;2;2;
76421;PMS5003;65254;52.354;13.614;2023-02-03T19:44:00;1;1;
76421;PMS5003;65254;52.354;13.614;2023-02-03T19:48:00;1;1;
76421;PMS5003;65254;52.354;13.614;2023-02-03T19:52:00;2;2;
76421;PMS5003;65254;52.354;13.614;2023-02-03T19:56:01;1;1;
76421;PMS5003;65254;52.354;13.614;2023-02-03T20:00:02;2;2;
76421;PMS5003;65254;52.354;13.614;2023-02-03T20:04:00;1;1;
76421;PMS5003;65254;52.354;13.614;2023-02-03T20:08:00;2;2;
76421;PMS5003;65254;52.354;13.614;2023-02-03T20:12:00;1;1;
76421;PMS5003;65254;52.354;13.614;2023-02-03T20:16:00;1;1;
76421;PMS5003;65254;52.354;13.614;2023-02-03T20:20:00;1;1;
76421;PMS5003;65254;52.354;13.614;2023-02-03T20:24:00;1;1;
76421;PMS5003;65254;52.354;13.614;2023-02-03T20:28:00;2;2;
76421;PMS5003;65254;52.354;13.614;2023-02-03T20:32:01;1;1;
76421;PMS5003;65254;52.354;13.614;2023-02-03T20:36:00;1;1;
76421;PMS5003;65254;52.354;13.614;2023-02-03T20:40:01;2;2;
76421;PMS5003;65254;52.354;13.614;2023-02-03T20:44:00;1;1;
76421;PMS5003;65254;52.354;13.614;2023-02-03T20:48:00;1;1;
76421;PMS5003;65254;52.354;13.614;2023-02-03T20:52:00;1;1;
76421;PMS5003;65254;52.354;13.614;2023-02-03T20:56:00;1;1;
76421;PMS5003;65254;52.354;13.614;2023-02-03T21:00:00;1;1;
76421;PMS5003;65254;52.354;13.614;2023-02-03T21:04:00;1;1;
76421;PMS5003;65254;52.354;13.614;2023-02-03T21:08:04;0;0;
76421;PMS5003;65254;52.354;13.614;2023-02-03T21:12:00;1;1;
76421;PMS5003;65254;52.354;13.614;2023-02-03T21:16:01;1;1;
76421;PMS5003;65254;52.354;13.614;2023-02-03T21:20:00;1;1;
76421;PMS5003;65254;52.354;13.614;2023-02-03T21:24:13;0;0;
76421;PMS5003;65254;52.354;13.614;2023-02-03T21:28:00;0;0;
76421;PMS5003;65254;52.354;13.614;2023-02-03T21:32:01;1;1;
76421;PMS5003;65254;52.354;13.614;2023-02-03T21:36:00;0;0;
76421;PMS5003;65254;52.354;13.614;2023-02-03T21:40:00;0;0;
76421;PMS5003;65254;52.354;13.614;2023-02-03T21:44:00;0;0;
76421;PMS5003;65254;52.354;13.614;2023-02-03T21:52:00;0;0;
76421;PMS5003;65254;52.354;13.614;2023-02-03T21:56:14;0;0;
76421;PMS5003;65254;52.354;13.614;2023-02-03T22:00:00;0;0;
76421;PMS5003;65254;52.354;13.614;2023-02-03T22:04:00;0;0;
76421;PMS5003;65254;52.354;13.614;2023-02-03T22:08:01;0;0;
76421;PMS5003;65254;52.354;13.614;2023-02-03T22:12:01;0;0;
76421;PMS5003;65254;52.354;13.614;2023-02-03T22:16:01;0;0;
76421;PMS5003;65254;52.354;13.614;2023-02-03T22:20:00;0;0;
76421;PMS5003;65254;52.354;13.614;2023-02-03T22:24:00;0;0;
76421;PMS5003;65254;52.354;13.614;2023-02-03T22:28:01;0;0;
76421;PMS5003;65254;52.354;13.614;2023-02-03T22:32:01;0;0;
76421;PMS5003;65254;52.354;13.614;2023-02-03T22:36:01;0;0;
76421;PMS5003;65254;52.354;13.614;2023-02-03T22:40:01;0;0;
76421;PMS5003;65254;52.354;13.614;2023-02-03T22:44:00;0;0;
76421;PMS5003;65254;52.354;13.614;2023-02-03T22:48:01;0;0;
76421;PMS5003;65254;52.354;13.614;2023-02-03T22:52:00;0;0;
76421;PMS5003;65254;52.354;13.614;2023-02-03T22:56:00;0;0;
76421;PMS5003;65254;52.354;13.614;2023-02-03T23:00:00;0;0;
76421;PMS5003;65254;52.354;13.614;2023-02-03T23:04:00;0;0;
76421;PMS5003;65254;52.354;13.614;2023-02-03T23:08:00;0;0;
76421;PMS5003;65254;52.354;13.614;2023-02-03T23:12:00;0;0;
76421;PMS5003;65254;52.354;13.614;2023-02-03T23:16:00;1;1;
76421;PMS5003;65254;52.354;13.614;2023-02-03T23:20:00;1;1;
76421;PMS5003;65254;52.354;13.614;2023-02-03T23:24:00;1;1;
76421;PMS5003;65254;52.354;13.614;2023-02-03T23:28:00;1;1;
76421;PMS5003;65254;52.354;13.614;2023-02-03T23:32:00;1;1;
76421;PMS5003;65254;52.354;13.614;2023-02-03T23:36:00;1;1;
76421;PMS5003;65254;52.354;13.614;2023-02-03T23:40:00;1;1;
76421;PMS5003;65254;52.354;13.614;2023-02-03T23:44:00;1;1;
76421;PMS5003;65254;52.354;13.614;2023-02-03T23:48:00;1;1;
76421;PMS5003;65254;52.354;13.614;2023-02-03T23:52:00;1;1;
76421;PMS5003;65254;52.354;13.614;2023-02-03T23:56:00;1;1;
